Hauptseite
METAR-TAF:

METAR-TAF

Flughäfen :

Flughafen Damaskus

Damaskus, Syrien

Breite: 33-25N, Länge: 036-31E, Höhe: 608 m

Beobachtung

Neuester Wetterbericht von vor 46 Minuten, um 14:00 UTC
Wind 8 kt aus Nordost
Temperatur 26°C
Luftfeuchtigkeit 17%
Luftdruck 1020 hPa
Sichtweite 10 km oder mehr
keine Wolken unter 1500 m und keine Kumulonimbus oder Gewitterwolken

METAR: OSDI 251400Z 04008KT CAVOK 26/M01 Q1020

Zeit: 17:46 (14:46 UTC)

Prognose

Neuester Wetterbericht von vor 10 Stunden und 46 Minuten, um 04:00 UTC
Gültige Prognose vom 25 um 06 UTC bis 26 um 12 UTC
Wind 8 kt aus Ost/Südost
Sichtweite 10 km oder mehr
Leicht bewölkt in der Höhe von 3000 ft

TAF: OSDI 250400Z 2506/2612 12008KT 9999 FEW030

Wetterbeobachtungen und Prognosen von mehr als 4000 Flughäfen (METAR und TAF Bericht).

Die verfügbaren Stationen werden durch gelbe und rote Markierungen auf der Karte dargestellt.

Führen Sie die Maus auf sie, um den Namen der Station zu sehen.

Darauf klicken, um die Beobachtung von Wetterbeobachtungen und Prognosen zu sehen.

Um die Karte zu ändern : klicken Sie auf den grünen Tasten mit einem schwarzen Kreuz Zum Vergrößern, auf den grünen Button mit einem Gedankenstrich zu verkleinern, oder auf die grünen Pfeile für benachbarte Karten.


METAR-TAF: